Time;durP1;ratioP1;P1;durP2;ratioP2;P2;SDS_P1;SDS_P2;PMS_P1;PMS_P2;Temp;Humidity;BMP_temperature;BMP_pressure;BME280_temperature;BME280_humidity;BME280_pressure;Samples;Min_cycle;Max_cycle;Signal;HPM_P1;HPM_P2
2023/08/15 00:01:50;;;;;;;6.00;5.40;;;21.70;99.90;;;;;;5099341;28;20191;-64
2023/08/15 00:04:15;;;;;;;8.70;5.43;;;21.70;99.90;;;;;;5099754;28;20188;-63
2023/08/15 00:06:41;;;;;;;5.50;5.10;;;21.70;99.90;;;;;;5098335;28;20194;-64
2023/08/15 00:09:07;;;;;;;5.33;4.83;;;21.70;99.90;;;;;;5099755;28;20335;-63
2023/08/15 00:11:32;;;;;;;5.33;4.93;;;21.70;99.90;;;;;;5100067;28;20207;-63
2023/08/15 00:13:58;;;;;;;6.50;5.63;;;21.80;99.90;;;;;;5100732;28;20234;-63
2023/08/15 00:16:24;;;;;;;6.47;5.83;;;21.80;99.90;;;;;;5098405;28;20713;-64
2023/08/15 00:18:50;;;;;;;6.57;5.90;;;21.80;99.90;;;;;;5100842;28;20188;-63
2023/08/15 00:21:16;;;;;;;8.70;5.80;;;21.70;99.90;;;;;;5099734;28;20482;-63
2023/08/15 00:23:41;;;;;;;5.93;5.43;;;21.80;99.90;;;;;;5100451;28;20912;-64
2023/08/15 00:26:07;;;;;;;5.60;5.03;;;21.70;99.90;;;;;;5099779;28;20183;-63
2023/08/15 00:28:33;;;;;;;8.20;5.37;;;21.70;99.90;;;;;;5103940;28;20207;-63
2023/08/15 00:30:58;;;;;;;7.23;5.30;;;21.70;99.90;;;;;;5103162;28;20552;-63
2023/08/15 00:33:24;;;;;;;7.03;6.30;;;21.60;99.90;;;;;;5099906;28;20184;-63
2023/08/15 00:35:49;;;;;;;5.37;4.97;;;21.50;99.90;;;;;;5099732;28;20256;-63
2023/08/15 00:38:15;;;;;;;5.83;5.10;;;21.50;99.90;;;;;;5099528;28;20191;-63
2023/08/15 00:40:41;;;;;;;6.20;5.70;;;21.50;99.90;;;;;;5092086;28;20276;-64
2023/08/15 00:43:08;;;;;;;5.70;5.10;;;21.40;99.90;;;;;;5083995;28;20256;-62
2023/08/15 00:45:37;;;;;;;6.37;5.77;;;21.50;99.90;;;;;;5093098;28;20617;-63
2023/08/15 00:48:04;;;;;;;5.47;4.93;;;21.50;99.90;;;;;;5103870;28;20605;-64
2023/08/15 00:50:30;;;;;;;5.77;5.27;;;21.50;99.90;;;;;;5103233;28;20456;-63
2023/08/15 00:52:56;;;;;;;5.43;4.93;;;21.40;99.90;;;;;;5104030;28;20425;-64
2023/08/15 00:55:22;;;;;;;9.13;5.60;;;21.30;99.90;;;;;;5103201;28;20409;-63
2023/08/15 00:57:48;;;;;;;5.67;5.17;;;21.30;99.90;;;;;;5103414;28;20414;-64
2023/08/15 01:00:15;;;;;;;6.30;5.80;;;21.30;99.90;;;;;;5102993;28;20596;-63
2023/08/15 01:02:42;;;;;;;5.07;4.67;;;21.40;99.90;;;;;;5103890;28;20187;-63
2023/08/15 01:05:08;;;;;;;6.80;5.73;;;21.30;99.90;;;;;;5102921;28;20449;-63
2023/08/15 01:07:34;;;;;;;6.57;5.37;;;21.30;99.90;;;;;;5102274;28;20469;-63
2023/08/15 01:10:00;;;;;;;6.17;4.93;;;21.20;99.90;;;;;;5103922;28;20482;-63
2023/08/15 01:12:42;;;;;;;6.10;5.50;;;21.10;99.90;;;;;;5102833;28;20931;-63
2023/08/15 01:15:15;;;;;;;5.40;4.90;;;21.10;99.90;;;;;;5103702;28;20226;-63
2023/08/15 01:17:55;;;;;;;4.83;4.43;;;21.00;99.90;;;;;;5102812;28;20418;-64
2023/08/15 01:20:26;;;;;;;6.40;5.90;;;21.00;99.90;;;;;;5103032;28;20474;-63
2023/08/15 01:22:53;;;;;;;5.70;5.20;;;20.90;99.90;;;;;;5103656;28;20414;-63
2023/08/15 01:25:19;;;;;;;5.37;4.87;;;20.90;99.90;;;;;;5102683;28;20421;-63
2023/08/15 01:27:45;;;;;;;6.47;5.87;;;20.90;99.90;;;;;;5102587;28;20465;-64
2023/08/15 01:30:13;;;;;;;6.13;5.53;;;20.80;99.90;;;;;;5103776;28;20772;-63
2023/08/15 01:32:42;;;;;;;5.60;5.10;;;20.80;99.90;;;;;;5102635;28;20639;-63
2023/08/15 01:35:28;;;;;;;5.93;5.30;;;20.90;99.90;;;;;;5103407;28;20787;-64
2023/08/15 01:38:02;;;;;;;6.40;5.70;;;20.80;99.90;;;;;;5102741;28;20437;-63
2023/08/15 01:40:33;;;;;;;6.17;5.67;;;20.80;99.90;;;;;;5102852;28;20430;-64
2023/08/15 01:43:02;;;;;;;6.43;5.93;;;20.80;99.90;;;;;;5103223;28;20494;-63
2023/08/15 01:45:28;;;;;;;6.53;5.93;;;20.80;99.90;;;;;;5102257;28;21241;-63
2023/08/15 01:47:54;;;;;;;5.97;5.37;;;20.80;99.90;;;;;;5102310;28;20472;-63
2023/08/15 01:50:20;;;;;;;6.23;5.70;;;20.80;99.90;;;;;;5103111;28;20946;-62
2023/08/15 01:52:45;;;;;;;6.93;5.90;;;20.80;99.90;;;;;;5101800;28;20478;-63
2023/08/15 01:55:11;;;;;;;6.33;5.83;;;20.80;99.90;;;;;;5102943;28;20612;-63
2023/08/15 01:57:37;;;;;;;5.83;5.37;;;20.80;99.90;;;;;;5101550;28;20179;-63
2023/08/15 02:00:03;;;;;;;6.10;5.60;;;20.80;99.90;;;;;;5084087;28;20187;-64
2023/08/15 02:02:29;;;;;;;5.90;5.40;;;20.90;99.90;;;;;;5102393;28;20179;-63
2023/08/15 02:04:55;;;;;;;6.37;5.83;;;20.90;99.90;;;;;;5102689;28;20418;-63
2023/08/15 02:07:21;;;;;;;7.60;6.43;;;20.90;99.90;;;;;;5101304;28;20182;-63
2023/08/15 02:09:46;;;;;;;5.47;4.97;;;21.00;99.90;;;;;;5102609;28;20434;-63
2023/08/15 02:12:12;;;;;;;6.50;5.87;;;21.00;99.90;;;;;;5102443;28;20183;-63
2023/08/15 02:14:38;;;;;;;12.27;6.40;;;21.00;99.90;;;;;;5101949;28;20183;-63
2023/08/15 02:17:03;;;;;;;6.37;5.77;;;21.00;99.90;;;;;;5102215;28;20386;-63
2023/08/15 02:19:29;;;;;;;6.47;5.60;;;21.00;99.90;;;;;;5101834;28;20246;-63
2023/08/15 02:21:54;;;;;;;6.20;5.70;;;21.00;99.90;;;;;;5084111;28;20258;-63
2023/08/15 02:24:20;;;;;;;6.47;5.97;;;20.90;99.90;;;;;;5101964;28;20649;-63
2023/08/15 02:26:46;;;;;;;8.10;5.80;;;20.90;99.90;;;;;;5100550;28;20182;-63
2023/08/15 02:29:14;;;;;;;6.03;5.53;;;20.90;99.90;;;;;;5102290;28;20652;-63
2023/08/15 02:31:44;;;;;;;5.67;5.17;;;20.90;99.90;;;;;;5101632;28;20529;-63
2023/08/15 02:34:09;;;;;;;6.07;5.57;;;20.90;99.90;;;;;;5102316;28;20413;-64
2023/08/15 02:36:35;;;;;;;5.30;4.80;;;20.90;99.90;;;;;;5100343;28;21163;-63
2023/08/15 02:39:01;;;;;;;5.87;5.37;;;20.90;99.90;;;;;;5102284;28;20638;-63
2023/08/15 02:41:27;;;;;;;5.80;5.10;;;20.90;99.90;;;;;;5101974;28;20673;-63
2023/08/15 02:43:53;;;;;;;5.80;5.30;;;21.00;99.90;;;;;;5102110;28;20402;-63
2023/08/15 02:46:19;;;;;;;6.03;5.53;;;21.00;99.90;;;;;;5101332;28;20286;-63
2023/08/15 02:48:45;;;;;;;6.20;5.03;;;21.10;99.90;;;;;;5100235;28;20235;-63
2023/08/15 02:51:11;;;;;;;6.13;5.57;;;21.10;99.90;;;;;;5102354;28;20815;-63
2023/08/15 02:53:36;;;;;;;5.33;4.83;;;21.10;99.90;;;;;;5101283;28;20191;-63
2023/08/15 02:56:02;;;;;;;5.57;5.17;;;21.10;99.90;;;;;;5101469;28;20677;-63
2023/08/15 02:58:28;;;;;;;5.70;5.20;;;21.00;99.90;;;;;;5101344;28;20241;-63
2023/08/15 03:00:53;;;;;;;7.97;5.33;;;21.00;99.90;;;;;;5082408;28;20180;-63
2023/08/15 03:03:19;;;;;;;5.30;4.90;;;21.10;99.90;;;;;;5101966;28;20587;-63
2023/08/15 03:05:44;;;;;;;4.90;4.50;;;21.10;99.90;;;;;;5100168;28;20180;-63
2023/08/15 03:08:10;;;;;;;5.83;4.90;;;21.10;99.90;;;;;;5101234;28;20224;-63
2023/08/15 03:10:38;;;;;;;5.30;4.80;;;21.10;99.90;;;;;;5101723;28;20203;-61
2023/08/15 03:13:04;;;;;;;5.60;5.07;;;21.10;99.90;;;;;;5101683;28;20199;-63
2023/08/15 03:15:29;;;;;;;5.77;5.03;;;21.10;99.90;;;;;;5101734;28;20418;-63
2023/08/15 03:17:57;;;;;;;5.93;5.33;;;21.10;99.90;;;;;;5100405;28;20168;-63
2023/08/15 03:20:22;;;;;;;5.70;5.20;;;21.10;99.90;;;;;;5101669;28;20546;-63
2023/08/15 03:22:48;;;;;;;6.90;4.73;;;21.10;99.90;;;;;;5100875;28;20420;-64
2023/08/15 03:25:14;;;;;;;5.33;4.90;;;21.10;99.90;;;;;;5101202;28;20180;-63
2023/08/15 03:27:39;;;;;;;5.17;4.70;;;21.10;99.90;;;;;;5100482;28;20207;-64
2023/08/15 03:30:06;;;;;;;5.10;4.70;;;21.10;99.90;;;;;;5100458;28;20178;-63
2023/08/15 03:32:32;;;;;;;7.67;5.17;;;21.10;99.90;;;;;;5101721;28;20198;-63
2023/08/15 03:34:57;;;;;;;6.03;5.50;;;21.10;99.90;;;;;;5100386;28;20410;-63
2023/08/15 03:37:23;;;;;;;5.13;4.63;;;21.20;99.90;;;;;;5100800;28;20273;-63
2023/08/15 03:39:49;;;;;;;5.20;4.80;;;21.20;99.90;;;;;;5100953;28;20179;-63
2023/08/15 03:42:14;;;;;;;5.77;5.20;;;21.20;99.90;;;;;;5101117;28;20747;-64
2023/08/15 03:44:40;;;;;;;6.80;5.53;;;21.20;99.90;;;;;;5101036;28;20172;-63
2023/08/15 03:47:06;;;;;;;6.20;5.60;;;21.20;99.90;;;;;;5099907;28;20171;-63
2023/08/15 03:49:32;;;;;;;6.23;5.73;;;21.20;99.90;;;;;;5101309;28;20210;-63
2023/08/15 03:51:57;;;;;;;6.90;6.20;;;21.20;99.90;;;;;;5100480;28;20172;-63
2023/08/15 03:54:23;;;;;;;6.27;5.67;;;21.20;99.90;;;;;;5101027;28;20175;-63
2023/08/15 03:56:48;;;;;;;7.00;5.97;;;21.20;99.90;;;;;;5100319;28;20232;-63
2023/08/15 03:59:14;;;;;;;6.30;5.80;;;21.20;99.90;;;;;;5100048;28;20262;-63
2023/08/15 04:01:40;;;;;;;11.50;6.27;;;21.20;99.90;;;;;;5101181;28;20187;-64
2023/08/15 04:04:07;;;;;;;7.90;6.00;;;21.20;99.90;;;;;;5100466;28;20180;-63
2023/08/15 04:06:32;;;;;;;20.23;6.80;;;21.20;99.90;;;;;;5099199;28;20191;-63
2023/08/15 04:08:58;;;;;;;7.33;6.30;;;21.20;99.90;;;;;;5100071;28;20465;-63
2023/08/15 04:11:24;;;;;;;6.67;6.07;;;21.20;99.90;;;;;;5100863;28;20187;-64
2023/08/15 04:13:50;;;;;;;6.80;6.00;;;21.30;99.90;;;;;;5101106;28;20202;-63
2023/08/15 04:16:15;;;;;;;7.70;6.53;;;21.30;99.90;;;;;;5101959;28;20175;-63
2023/08/15 04:18:41;;;;;;;8.10;6.33;;;21.30;99.90;;;;;;5104472;28;20602;-63
2023/08/15 04:21:06;;;;;;;6.83;6.03;;;21.30;99.90;;;;;;5104412;28;20240;-63
2023/08/15 04:23:32;;;;;;;8.03;6.47;;;21.20;99.90;;;;;;5105262;28;20195;-64
2023/08/15 04:25:58;;;;;;;5.83;5.33;;;21.20;99.90;;;;;;5103469;28;20203;-63
2023/08/15 04:28:23;;;;;;;6.17;5.60;;;21.10;99.90;;;;;;5103817;28;20348;-64
2023/08/15 04:30:49;;;;;;;6.27;5.03;;;21.10;99.90;;;;;;5086185;28;20186;-64
2023/08/15 04:33:15;;;;;;;6.17;5.57;;;21.00;99.90;;;;;;5104383;28;20211;-64
2023/08/15 04:35:40;;;;;;;7.80;6.10;;;20.90;99.90;;;;;;5104201;28;20202;-63
2023/08/15 04:38:06;;;;;;;7.03;6.07;;;21.00;99.90;;;;;;5103422;28;20240;-63
2023/08/15 04:40:40;;;;;;;6.33;5.70;;;20.90;99.90;;;;;;5104606;28;20827;-63
2023/08/15 04:43:07;;;;;;;5.97;4.90;;;20.90;99.90;;;;;;5104214;28;20175;-63
2023/08/15 04:45:33;;;;;;;8.20;4.93;;;20.90;99.90;;;;;;5103917;28;20417;-63
2023/08/15 04:47:58;;;;;;;6.23;5.20;;;21.00;99.90;;;;;;5103169;28;20511;-63
2023/08/15 04:50:24;;;;;;;6.20;5.30;;;20.90;99.90;;;;;;5102752;28;20401;-64
2023/08/15 04:52:50;;;;;;;5.80;5.20;;;20.80;99.90;;;;;;5076318;28;20188;-63
2023/08/15 04:55:16;;;;;;;7.00;5.40;;;20.90;99.90;;;;;;5102805;28;20458;-64
2023/08/15 04:57:42;;;;;;;7.50;5.17;;;20.90;99.90;;;;;;5096928;28;20199;-63
2023/08/15 05:00:09;;;;;;;5.80;5.10;;;20.90;99.90;;;;;;5092599;28;21226;-63
2023/08/15 05:02:38;;;;;;;8.00;6.13;;;20.80;99.90;;;;;;5100611;28;20176;-63
2023/08/15 05:05:09;;;;;;;6.70;6.03;;;20.80;99.90;;;;;;5101953;28;20426;-63
2023/08/15 05:07:35;;;;;;;5.13;4.73;;;20.70;99.90;;;;;;5101753;28;20807;-63
2023/08/15 05:10:01;;;;;;;5.87;5.37;;;20.70;99.90;;;;;;5102382;28;20470;-64
2023/08/15 05:12:27;;;;;;;7.23;5.40;;;20.70;99.90;;;;;;5103741;28;21245;-63
2023/08/15 05:14:53;;;;;;;6.50;5.87;;;20.70;99.90;;;;;;5103245;28;20422;-64
2023/08/15 05:17:19;;;;;;;7.27;6.43;;;20.70;99.90;;;;;;5102540;28;20267;-63
2023/08/15 05:19:44;;;;;;;8.00;6.00;;;20.70;99.90;;;;;;5103993;28;20180;-63
2023/08/15 05:22:10;;;;;;;8.67;5.87;;;20.70;99.90;;;;;;5103021;28;20505;-63
2023/08/15 05:24:36;;;;;;;6.80;6.10;;;20.70;99.90;;;;;;5103843;28;20176;-63
2023/08/15 05:27:01;;;;;;;7.40;6.70;;;20.70;99.90;;;;;;5102122;28;20180;-64
2023/08/15 05:29:27;;;;;;;7.63;6.00;;;20.70;99.90;;;;;;5100390;28;20288;-63
2023/08/15 05:31:53;;;;;;;6.90;6.30;;;20.70;99.90;;;;;;5096538;28;20182;-64
2023/08/15 05:34:18;;;;;;;6.77;6.27;;;20.70;99.90;;;;;;5102596;28;20179;-63
2023/08/15 05:36:44;;;;;;;6.17;5.53;;;20.80;99.90;;;;;;5102491;28;20203;-63
2023/08/15 05:39:10;;;;;;;6.67;5.97;;;20.80;99.90;;;;;;5102561;28;20175;-63
2023/08/15 05:41:36;;;;;;;6.83;5.57;;;20.80;99.90;;;;;;5103188;28;20692;-63
2023/08/15 05:44:01;;;;;;;6.37;5.77;;;20.80;99.90;;;;;;5103753;28;20176;-63
2023/08/15 05:46:27;;;;;;;5.93;5.40;;;20.80;99.90;;;;;;5072678;28;20190;-64
2023/08/15 05:48:53;;;;;;;9.50;6.10;;;20.80;99.90;;;;;;5098443;28;20204;-63
2023/08/15 05:51:18;;;;;;;6.40;5.80;;;20.80;99.90;;;;;;5101910;28;20191;-63
2023/08/15 05:53:44;;;;;;;7.37;6.70;;;20.80;99.90;;;;;;5103290;28;20544;-64
2023/08/15 05:56:10;;;;;;;8.80;7.03;;;20.80;99.90;;;;;;5102488;28;20993;-63
2023/08/15 05:58:35;;;;;;;7.63;6.83;;;20.80;99.90;;;;;;5101603;28;20188;-63
2023/08/15 06:01:01;;;;;;;8.63;7.23;;;20.80;99.90;;;;;;5102535;28;20343;-63
2023/08/15 06:03:27;;;;;;;7.70;7.00;;;20.80;99.90;;;;;;5101722;28;20712;-63
2023/08/15 06:05:58;;;;;;;8.00;7.20;;;20.80;99.90;;;;;;5101471;28;20329;-63
2023/08/15 06:08:23;;;;;;;8.93;8.13;;;20.80;99.90;;;;;;5100456;28;20235;-63
2023/08/15 06:10:49;;;;;;;10.43;8.27;;;20.80;99.90;;;;;;5101298;28;21077;-63
2023/08/15 06:13:15;;;;;;;8.80;7.60;;;20.80;99.90;;;;;;5100350;28;20183;-62
2023/08/15 06:15:40;;;;;;;8.83;7.93;;;20.80;99.90;;;;;;5095927;28;20210;-63
2023/08/15 06:18:06;;;;;;;6.90;6.30;;;20.80;99.90;;;;;;5095794;28;20893;-62
2023/08/15 06:20:32;;;;;;;8.97;8.13;;;20.80;99.90;;;;;;5100909;28;20180;-63
2023/08/15 06:22:58;;;;;;;9.13;8.20;;;20.80;99.90;;;;;;5102199;28;20653;-63
2023/08/15 06:25:24;;;;;;;8.77;7.87;;;20.90;99.90;;;;;;5092229;28;20184;-63
2023/08/15 06:27:49;;;;;;;10.40;8.90;;;21.00;99.90;;;;;;5094807;28;20472;-63
2023/08/15 06:30:15;;;;;;;9.60;8.70;;;21.20;99.90;;;;;;5099608;28;20594;-62
2023/08/15 06:32:41;;;;;;;9.23;8.17;;;21.30;99.90;;;;;;5100103;28;20619;-63
2023/08/15 06:35:08;;;;;;;9.67;8.67;;;21.40;99.90;;;;;;5097464;28;20425;-63
2023/08/15 06:37:34;;;;;;;9.23;8.43;;;21.40;99.90;;;;;;5095121;28;20205;-63
2023/08/15 06:40:00;;;;;;;9.30;8.60;;;21.40;99.90;;;;;;5096561;28;20520;-62
2023/08/15 06:42:25;;;;;;;9.73;8.80;;;21.40;99.90;;;;;;5090888;28;20426;-62
2023/08/15 06:45:11;;;;;;;8.83;8.03;;;21.40;99.90;;;;;;5092532;28;20190;-63
2023/08/15 06:47:37;;;;;;;8.97;8.17;;;21.40;99.90;;;;;;5075799;28;20282;-63
2023/08/15 06:50:06;;;;;;;9.43;8.30;;;21.40;99.90;;;;;;5091588;28;20441;-62
2023/08/15 06:52:32;;;;;;;14.30;8.73;;;21.30;99.90;;;;;;5085192;28;20457;-63
2023/08/15 06:54:58;;;;;;;8.97;8.17;;;21.30;99.90;;;;;;5097255;28;20436;-63
2023/08/15 06:57:24;;;;;;;10.27;7.70;;;21.20;99.90;;;;;;5099966;28;20414;-62
2023/08/15 06:59:49;;;;;;;8.57;7.77;;;21.20;99.90;;;;;;5090598;28;20188;-62
2023/08/15 07:02:15;;;;;;;8.30;7.60;;;21.20;99.90;;;;;;5095434;28;20179;-62
2023/08/15 07:04:41;;;;;;;8.50;7.57;;;21.20;99.90;;;;;;5096241;28;20300;-62
2023/08/15 07:07:11;;;;;;;7.73;6.83;;;21.20;99.90;;;;;;5099403;28;20649;-63
2023/08/15 07:09:37;;;;;;;8.40;7.20;;;21.20;99.90;;;;;;5101024;28;20457;-62
2023/08/15 07:12:04;;;;;;;8.90;7.70;;;21.20;99.90;;;;;;5101423;28;21307;-62
2023/08/15 07:14:33;;;;;;;7.30;6.60;;;21.20;99.90;;;;;;5101268;28;20175;-62
2023/08/15 07:17:00;;;;;;;6.93;6.33;;;21.20;99.90;;;;;;5100636;28;20413;-62
2023/08/15 07:19:25;;;;;;;8.37;7.57;;;21.30;99.90;;;;;;5101500;28;20465;-62
2023/08/15 07:21:51;;;;;;;7.57;6.73;;;21.40;99.90;;;;;;5100685;28;20493;-62
2023/08/15 07:24:17;;;;;;;8.67;7.60;;;21.50;99.90;;;;;;5100360;28;20183;-63
2023/08/15 07:26:43;;;;;;;8.03;7.33;;;21.70;99.90;;;;;;5099883;28;20179;-63
2023/08/15 07:29:09;;;;;;;8.80;7.17;;;21.90;99.90;;;;;;5110734;27;20261;-63
2023/08/15 07:31:35;;;;;;;8.70;7.43;;;21.90;99.90;;;;;;5121376;27;20491;-62
2023/08/15 07:34:01;;;;;;;7.40;6.70;;;21.90;99.90;;;;;;5102163;28;20188;-63
2023/08/15 07:36:26;;;;;;;8.07;6.90;;;21.90;99.90;;;;;;5091862;28;20530;-63
2023/08/15 07:38:52;;;;;;;7.07;6.37;;;21.90;99.90;;;;;;5094503;28;20251;-63
2023/08/15 07:41:18;;;;;;;7.67;6.93;;;21.80;99.90;;;;;;5088067;28;20741;-62
2023/08/15 07:43:43;;;;;;;7.30;6.37;;;21.80;99.90;;;;;;5094799;28;20191;-62
2023/08/15 07:46:09;;;;;;;7.83;6.70;;;21.80;99.90;;;;;;5098955;28;20179;-63
2023/08/15 07:48:35;;;;;;;8.27;7.40;;;21.80;99.90;;;;;;5098483;28;20312;-62
2023/08/15 07:51:00;;;;;;;8.30;7.50;;;21.80;99.90;;;;;;5100339;28;20209;-62
2023/08/15 07:53:26;;;;;;;11.37;8.03;;;21.80;99.90;;;;;;5103565;28;20183;-62
2023/08/15 07:55:52;;;;;;;9.63;8.67;;;21.70;99.90;;;;;;5085004;28;20176;-62
2023/08/15 07:58:17;;;;;;;9.00;8.10;;;21.70;99.90;;;;;;5103379;28;20178;-63
2023/08/15 08:00:43;;;;;;;10.17;8.60;;;21.70;99.90;;;;;;5103083;28;20179;-62
2023/08/15 08:03:09;;;;;;;10.40;8.90;;;21.80;99.90;;;;;;5105108;28;20172;-62
2023/08/15 08:05:35;;;;;;;10.20;9.27;;;21.80;99.90;;;;;;5104604;28;20184;-62
2023/08/15 08:08:04;;;;;;;12.50;9.33;;;21.90;99.90;;;;;;5104193;28;20239;-63
2023/08/15 08:10:30;;;;;;;10.40;8.27;;;21.80;99.90;;;;;;5105106;28;20418;-62
2023/08/15 08:12:57;;;;;;;10.37;8.97;;;21.70;99.90;;;;;;5104727;28;20413;-62
2023/08/15 08:15:23;;;;;;;10.93;8.23;;;21.70;99.90;;;;;;5104434;28;20426;-62
2023/08/15 08:17:52;;;;;;;10.33;8.97;;;21.70;99.90;;;;;;5103661;28;20438;-62
2023/08/15 08:20:18;;;;;;;8.63;7.67;;;21.70;99.90;;;;;;5104674;28;20426;-63
2023/08/15 08:22:44;;;;;;;12.60;8.03;;;21.70;99.90;;;;;;5103924;28;20462;-62
2023/08/15 08:25:21;;;;;;;9.60;8.17;;;21.70;99.90;;;;;;5104501;28;20417;-63
2023/08/15 08:27:48;;;;;;;10.10;8.23;;;21.70;99.90;;;;;;5103337;28;20256;-62
2023/08/15 08:30:16;;;;;;;8.37;7.57;;;21.70;99.90;;;;;;5122887;27;20431;-62
2023/08/15 08:32:43;;;;;;;8.40;7.27;;;21.70;99.90;;;;;;5125060;27;20430;-61
2023/08/15 08:35:09;;;;;;;8.07;7.00;;;21.70;99.90;;;;;;5124618;27;20424;-62
2023/08/15 08:37:35;;;;;;;8.70;7.20;;;21.70;99.90;;;;;;5125851;27;20438;-62
2023/08/15 08:40:01;;;;;;;7.37;6.40;;;21.70;99.90;;;;;;5127123;27;20408;-62
2023/08/15 08:42:27;;;;;;;9.37;6.57;;;21.70;99.90;;;;;;5127119;27;20259;-62
2023/08/15 08:44:55;;;;;;;7.90;7.10;;;21.70;99.90;;;;;;5100188;28;20172;-62
2023/08/15 08:47:24;;;;;;;11.27;6.83;;;21.80;99.90;;;;;;5086954;28;21187;-62
2023/08/15 08:49:52;;;;;;;8.27;6.23;;;21.90;99.90;;;;;;5086202;28;20430;-62
2023/08/15 08:52:18;;;;;;;6.37;5.77;;;21.90;99.90;;;;;;5086550;28;20414;-62
2023/08/15 08:54:45;;;;;;;13.17;6.60;;;22.00;99.90;;;;;;5084652;28;20492;-62
2023/08/15 08:57:11;;;;;;;8.00;6.37;;;22.20;99.90;;;;;;5085282;28;20479;-62
2023/08/15 08:59:39;;;;;;;12.00;5.90;;;22.30;99.90;;;;;;5084679;28;21401;-62
2023/08/15 09:02:11;;;;;;;6.77;6.10;;;22.30;99.90;;;;;;5085245;28;20438;-62
2023/08/15 09:04:37;;;;;;;6.93;5.17;;;22.40;99.90;;;;;;5086226;28;20423;-62
2023/08/15 09:07:03;;;;;;;6.30;4.93;;;22.40;99.90;;;;;;5084935;28;20426;-62
2023/08/15 09:09:29;;;;;;;9.23;5.40;;;22.40;99.90;;;;;;5085984;28;20989;-62
2023/08/15 09:11:54;;;;;;;9.17;5.17;;;22.50;99.90;;;;;;5085818;28;20172;-62
2023/08/15 09:14:22;;;;;;;6.00;4.23;;;22.60;99.90;;;;;;5086368;28;20280;-62
2023/08/15 09:16:49;;;;;;;5.80;4.17;;;22.70;99.90;;;;;;5085154;28;20234;-61
2023/08/15 09:19:15;;;;;;;6.23;4.37;;;22.80;99.90;;;;;;5085600;28;21067;-62
2023/08/15 09:21:41;;;;;;;5.83;4.57;;;22.80;99.90;;;;;;5085855;28;20493;-62
2023/08/15 09:24:07;;;;;;;7.30;3.40;;;22.90;99.90;;;;;;5083941;28;21195;-62
2023/08/15 09:26:35;;;;;;;11.33;4.13;;;22.90;99.90;;;;;;5085094;28;20730;-62
2023/08/15 09:29:02;;;;;;;9.20;3.70;;;23.00;99.90;;;;;;5101038;27;20464;-62
2023/08/15 09:31:28;;;;;;;4.07;3.37;;;23.10;99.90;;;;;;5126673;27;20469;-62
2023/08/15 09:33:54;;;;;;;3.90;3.10;;;23.20;99.90;;;;;;5125389;27;20424;-62
2023/08/15 09:36:22;;;;;;;3.70;3.23;;;23.30;99.90;;;;;;5124565;27;20194;-62
2023/08/15 09:38:51;;;;;;;5.00;3.60;;;23.40;99.90;;;;;;5125113;27;20461;-62
2023/08/15 09:41:18;;;;;;;5.43;2.37;;;23.60;99.90;;;;;;5123191;27;20852;-62
2023/08/15 09:43:50;;;;;;;2.90;2.33;;;23.60;99.90;;;;;;5123929;27;20413;-62
2023/08/15 09:46:20;;;;;;;3.23;2.37;;;23.70;99.90;;;;;;5106510;27;20457;-62
2023/08/15 09:48:47;;;;;;;2.53;2.33;;;23.80;99.90;;;;;;5102944;28;20857;-62
2023/08/15 09:51:17;;;;;;;2.50;1.93;;;24.00;99.90;;;;;;5102710;28;20420;-62
2023/08/15 09:53:45;;;;;;;3.20;2.33;;;24.20;99.90;;;;;;5103492;28;20447;-62
2023/08/15 09:56:12;;;;;;;3.53;2.60;;;24.20;99.90;;;;;;5102219;28;20468;-62
2023/08/15 09:58:38;;;;;;;4.20;2.60;;;24.30;99.90;;;;;;5102092;28;20442;-62
2023/08/15 10:01:08;;;;;;;3.10;2.50;;;24.40;99.90;;;;;;5083891;28;20417;-61
2023/08/15 10:03:41;;;;;;;2.30;2.10;;;24.40;99.90;;;;;;5102709;28;20422;-62
2023/08/15 10:06:09;;;;;;;3.17;2.07;;;24.50;99.90;;;;;;5102012;28;20965;-62
2023/08/15 10:08:39;;;;;;;2.97;1.97;;;24.70;99.90;;;;;;5101912;28;20468;-62
2023/08/15 10:11:08;;;;;;;2.80;1.70;;;24.80;99.90;;;;;;5084283;28;20528;-62
2023/08/15 10:13:37;;;;;;;3.03;2.83;;;24.80;99.90;;;;;;5102261;28;20471;-62
2023/08/15 10:16:05;;;;;;;2.63;2.00;;;24.90;99.90;;;;;;5101978;28;21126;-62
2023/08/15 10:18:31;;;;;;;4.53;1.90;;;24.90;99.90;;;;;;5101937;28;20446;-62
2023/08/15 10:20:58;;;;;;;4.00;1.47;;;25.00;99.90;;;;;;5102595;28;20867;-62
2023/08/15 10:23:34;;;;;;;2.13;1.63;;;24.90;99.90;;;;;;5101842;28;20528;-62
2023/08/15 10:26:01;;;;;;;2.57;2.37;;;25.00;99.90;;;;;;5101938;28;20421;-62
2023/08/15 10:28:29;;;;;;;2.57;2.37;;;25.20;99.90;;;;;;5104597;27;20469;-62
2023/08/15 10:30:55;;;;;;;3.40;2.20;;;25.20;99.90;;;;;;5122783;27;20423;-62
2023/08/15 10:33:23;;;;;;;2.90;1.80;;;25.40;99.90;;;;;;5104215;27;20420;-62
2023/08/15 10:35:55;;;;;;;6.50;2.40;;;25.40;99.90;;;;;;5116491;27;20435;-62
2023/08/15 10:38:31;;;;;;;2.33;1.80;;;25.50;99.90;;;;;;5099217;28;20453;-62
2023/08/15 10:41:12;;;;;;;2.57;2.00;;;25.50;99.90;;;;;;5082170;28;20433;-62
2023/08/15 10:43:38;;;;;;;5.37;1.87;;;25.50;99.90;;;;;;5101764;28;20517;-63
2023/08/15 10:46:06;;;;;;;2.30;2.10;;;25.50;99.90;;;;;;5101003;28;21309;-62
2023/08/15 10:48:50;;;;;;;2.23;1.70;;;25.50;99.90;;;;;;5100726;28;21028;-62
2023/08/15 10:51:19;;;;;;;2.47;2.03;;;25.40;99.90;;;;;;5100952;28;20465;-62
2023/08/15 10:53:58;;;;;;;3.77;2.00;;;25.30;99.90;;;;;;5094302;28;20569;-63
2023/08/15 10:56:28;;;;;;;2.57;1.97;;;25.30;99.90;;;;;;5099469;28;20438;-63
2023/08/15 10:58:55;;;;;;;3.90;2.00;;;25.30;99.90;;;;;;5100008;28;20441;-63
2023/08/15 11:01:30;;;;;;;1.50;1.40;;;25.30;99.90;;;;;;5100590;28;20441;-63
2023/08/15 11:03:57;;;;;;;2.77;1.80;;;25.30;99.90;;;;;;5102012;28;20456;-63
2023/08/15 11:06:23;;;;;;;2.37;2.13;;;25.30;99.90;;;;;;5099353;28;20461;-64
2023/08/15 11:08:53;;;;;;;4.33;2.20;;;25.30;99.90;;;;;;5102218;28;20461;-63
2023/08/15 11:11:18;;;;;;;9.10;2.77;;;25.40;99.90;;;;;;5100229;28;20460;-63
2023/08/15 11:13:47;;;;;;;3.60;1.90;;;25.40;99.90;;;;;;5101415;28;20525;-63
2023/08/15 11:16:20;;;;;;;2.63;1.70;;;25.30;99.90;;;;;;5100071;28;20290;-63
2023/08/15 11:18:47;;;;;;;2.33;2.13;;;25.20;99.90;;;;;;5101336;28;20509;-63
2023/08/15 11:21:14;;;;;;;3.43;2.00;;;25.10;99.90;;;;;;5100540;28;20454;-62
2023/08/15 11:23:41;;;;;;;4.70;2.10;;;25.10;99.90;;;;;;5100803;28;20425;-63
2023/08/15 11:26:09;;;;;;;3.20;2.37;;;25.10;99.90;;;;;;5099525;28;20443;-63
2023/08/15 11:28:35;;;;;;;2.57;2.03;;;25.00;99.90;;;;;;5104397;27;20468;-63
2023/08/15 11:31:10;;;;;;;6.60;2.30;;;25.00;99.90;;;;;;5101093;28;20422;-63
2023/08/15 11:33:36;;;;;;;3.00;2.33;;;25.00;99.90;;;;;;5100670;28;20483;-63
2023/08/15 11:36:03;;;;;;;3.20;2.10;;;25.00;99.90;;;;;;5100464;28;20442;-63
2023/08/15 11:38:30;;;;;;;3.20;2.20;;;25.00;99.90;;;;;;5099286;28;20426;-63
2023/08/15 11:41:01;;;;;;;5.13;2.23;;;25.00;99.90;;;;;;5100961;28;20524;-63
2023/08/15 11:43:30;;;;;;;4.10;2.20;;;25.10;99.90;;;;;;5100183;28;20491;-62
2023/08/15 11:46:00;;;;;;;4.63;2.13;;;25.20;99.90;;;;;;5100079;28;20425;-63
2023/08/15 11:48:26;;;;;;;4.60;2.50;;;25.30;99.90;;;;;;5092711;28;20469;-63
2023/08/15 11:50:51;;;;;;;2.93;2.73;;;25.30;99.90;;;;;;5100770;28;20952;-63
2023/08/15 11:53:19;;;;;;;3.33;2.77;;;25.20;99.90;;;;;;5100625;28;20516;-63
2023/08/15 11:55:46;;;;;;;3.63;2.30;;;25.20;99.90;;;;;;5094688;28;20637;-62
2023/08/15 11:58:28;;;;;;;5.43;2.30;;;25.20;99.90;;;;;;5100090;28;20422;-63
2023/08/15 12:01:02;;;;;;;3.83;2.80;;;25.20;99.90;;;;;;5098691;28;20425;-62
2023/08/15 12:03:29;;;;;;;4.80;2.40;;;25.40;99.90;;;;;;5100210;28;20775;-62
2023/08/15 12:05:58;;;;;;;3.20;2.30;;;25.40;99.90;;;;;;5100014;28;20421;-63
2023/08/15 12:08:25;;;;;;;2.50;2.13;;;25.50;99.90;;;;;;5099852;28;20508;-63
2023/08/15 12:10:57;;;;;;;3.87;2.80;;;25.50;99.90;;;;;;5100310;28;20437;-63
2023/08/15 12:13:33;;;;;;;4.77;3.67;;;25.60;99.90;;;;;;5100370;28;20519;-62
2023/08/15 12:16:00;;;;;;;4.43;2.57;;;25.60;99.90;;;;;;5099922;28;20424;-63
2023/08/15 12:18:26;;;;;;;4.73;2.53;;;25.70;99.90;;;;;;5091338;28;20465;-62
2023/08/15 12:20:52;;;;;;;4.17;2.30;;;25.70;99.90;;;;;;5100101;28;20513;-63
2023/08/15 12:23:19;;;;;;;3.57;2.50;;;25.70;99.90;;;;;;5100823;28;20187;-63
2023/08/15 12:25:44;;;;;;;3.47;2.60;;;25.70;99.90;;;;;;5099163;28;20524;-63
2023/08/15 12:28:10;;;;;;;3.60;2.63;;;25.70;99.90;;;;;;5099759;28;20509;-63
2023/08/15 12:30:36;;;;;;;3.47;2.80;;;25.70;99.90;;;;;;5099561;28;20176;-62
2023/08/15 12:33:02;;;;;;;6.20;3.27;;;25.60;99.90;;;;;;5100127;28;20215;-63
2023/08/15 12:35:28;;;;;;;4.17;2.87;;;25.60;99.90;;;;;;5099323;28;20188;-63
2023/08/15 12:37:54;;;;;;;3.47;2.40;;;25.50;99.90;;;;;;5101729;28;20973;-62
2023/08/15 12:40:20;;;;;;;3.53;2.43;;;25.50;99.90;;;;;;5104056;28;20512;-63
2023/08/15 12:42:45;;;;;;;6.90;3.17;;;25.40;99.90;;;;;;5103279;28;20195;-63
2023/08/15 12:45:11;;;;;;;4.80;2.50;;;25.40;99.90;;;;;;5103485;28;20180;-63